createdAt,value
2019-04-04T00:01:40.109Z,29.63
2019-04-04T00:03:41.777Z,28.13
2019-04-04T00:05:43.446Z,33.80
2019-04-04T00:07:45.109Z,29.17
2019-04-04T00:09:46.785Z,35.43
2019-04-04T00:11:49.267Z,37.67
2019-04-04T00:13:50.933Z,35.90
2019-04-04T00:15:52.597Z,41.67
2019-04-04T00:17:54.490Z,35.70
2019-04-04T00:19:56.148Z,33.97
2019-04-04T00:21:57.812Z,35.97
2019-04-04T00:23:59.495Z,43.17
2019-04-04T00:26:01.169Z,37.60
2019-04-04T00:28:02.860Z,38.73
2019-04-04T00:30:04.677Z,32.90
2019-04-04T00:32:06.345Z,40.87
2019-04-04T00:34:08.013Z,38.80
2019-04-04T00:36:09.690Z,38.27
2019-04-04T00:38:11.361Z,36.83
2019-04-04T00:40:13.028Z,39.60
2019-04-04T00:42:16.857Z,36.37
2019-04-04T00:44:18.581Z,40.37
2019-04-04T00:46:20.235Z,37.07
2019-04-04T00:48:22.312Z,44.30
2019-04-04T00:50:23.983Z,42.40
2019-04-04T00:52:25.653Z,40.27
2019-04-04T00:54:27.320Z,40.20
2019-04-04T00:56:28.989Z,46.40
2019-04-04T00:58:30.976Z,44.43
2019-04-04T01:00:32.653Z,41.07
2019-04-04T01:02:34.308Z,49.17
2019-04-04T01:04:36.236Z,51.30
2019-04-04T01:06:38.201Z,48.50
2019-04-04T01:08:39.877Z,48.77
2019-04-04T01:10:41.528Z,49.60
2019-04-04T01:12:43.461Z,51.83
2019-04-04T01:14:45.143Z,48.07
2019-04-04T01:16:47.080Z,46.33
2019-04-04T01:18:48.755Z,46.60
2019-04-04T01:20:51.316Z,45.47
2019-04-04T01:22:54.056Z,42.77
2019-04-04T01:24:56.800Z,45.13
2019-04-04T01:26:58.462Z,45.77
2019-04-04T01:29:00.381Z,45.60
2019-04-04T01:31:02.044Z,51.40
2019-04-04T01:33:03.925Z,47.67
2019-04-04T01:35:05.782Z,51.37
2019-04-04T01:37:07.433Z,48.30
2019-04-04T01:39:09.632Z,53.00
2019-04-04T01:41:11.301Z,47.10
2019-04-04T01:43:12.958Z,48.83
2019-04-04T01:45:14.621Z,43.03
2019-04-04T01:47:17.055Z,51.30
2019-04-04T01:49:21.184Z,51.13
2019-04-04T01:51:25.319Z,46.67
2019-04-04T01:53:29.835Z,46.43
2019-04-04T01:55:30.648Z,48.27
2019-04-04T01:57:32.566Z,51.50
2019-04-04T01:59:34.257Z,52.50
2019-04-04T02:01:36.210Z,50.83
2019-04-04T02:03:37.882Z,53.50
2019-04-04T02:05:39.553Z,49.83
2019-04-04T02:07:41.239Z,56.70
2019-04-04T02:09:43.454Z,52.37
2019-04-04T02:11:45.457Z,48.07
2019-04-04T02:13:47.119Z,50.30
2019-04-04T02:15:48.792Z,47.60
2019-04-04T02:17:51.037Z,53.07
2019-04-04T02:19:56.261Z,49.43
2019-04-04T02:21:59.865Z,49.77
2019-04-04T02:24:02.011Z,52.90
2019-04-04T02:26:05.268Z,48.50
2019-04-04T02:28:08.869Z,49.63
2019-04-04T02:30:14.936Z,53.60
2019-04-04T02:32:15.937Z,46.43
2019-04-04T02:34:17.611Z,46.77
2019-04-04T02:36:19.289Z,52.20
2019-04-04T02:38:20.967Z,50.30
2019-04-04T02:40:22.633Z,54.30
2019-04-04T02:42:24.304Z,51.30
2019-04-04T02:44:25.993Z,48.90
2019-04-04T02:46:27.662Z,49.93
2019-04-04T02:48:29.669Z,54.70
2019-04-04T02:50:34.383Z,55.10
2019-04-04T02:52:34.889Z,55.23
2019-04-04T02:54:36.566Z,60.00
2019-04-04T02:56:38.230Z,64.90
2019-04-04T02:58:40.172Z,67.60
2019-04-04T03:00:41.854Z,56.90
2019-04-04T03:02:43.512Z,70.50
2019-04-04T03:04:46.839Z,62.00
2019-04-04T03:06:49.350Z,58.37
2019-04-04T03:08:51.019Z,59.47
2019-04-04T03:10:52.696Z,63.77
2019-04-04T03:12:58.170Z,78.00
2019-04-04T03:14:57.937Z,61.40
2019-04-04T03:16:59.601Z,60.90
2019-04-04T03:19:01.269Z,61.80
2019-04-04T03:21:03.055Z,57.77
2019-04-04T03:23:04.719Z,63.50
2019-04-04T03:25:06.389Z,63.70
2019-04-04T03:27:08.071Z,62.20
2019-04-04T03:29:10.692Z,57.67
2019-04-04T03:31:12.955Z,57.57
2019-04-04T03:33:14.910Z,52.20
2019-04-04T03:35:16.877Z,57.13
2019-04-04T03:37:18.542Z,56.13
2019-04-04T03:39:20.541Z,58.10
2019-04-04T03:41:22.381Z,57.93
2019-04-04T03:43:24.032Z,52.40
2019-04-04T03:45:27.352Z,54.40
2019-04-04T03:47:29.286Z,56.73
2019-04-04T03:49:30.955Z,54.97
2019-04-04T03:51:37.071Z,61.27
2019-04-04T03:53:38.449Z,65.63
2019-04-04T03:55:40.124Z,51.83
2019-04-04T03:57:41.802Z,52.90
2019-04-04T03:59:43.472Z,51.27
2019-04-04T04:01:46.766Z,49.20
2019-04-04T04:03:49.133Z,52.60
2019-04-04T04:05:50.804Z,64.70
2019-04-04T04:07:52.646Z,62.13
2019-04-04T04:09:58.968Z,62.03
2019-04-04T04:11:58.993Z,53.73
2019-04-04T04:14:00.953Z,63.17
2019-04-04T04:16:03.838Z,55.03
2019-04-04T04:18:05.982Z,48.00
2019-04-04T04:20:07.648Z,44.57
2019-04-04T04:22:12.753Z,43.40
2019-04-04T04:24:12.893Z,57.07
2019-04-04T04:26:14.580Z,50.40
2019-04-04T04:28:19.691Z,58.27
2019-04-04T04:30:19.816Z,53.57
2019-04-04T04:32:22.805Z,48.53
2019-04-04T04:34:25.020Z,40.20
2019-04-04T04:36:26.689Z,40.00
2019-04-04T04:38:28.367Z,55.60
2019-04-04T04:40:30.050Z,50.17
2019-04-04T04:42:31.817Z,59.97
2019-04-04T04:44:37.845Z,48.40
2019-04-04T04:46:37.070Z,57.33
2019-04-04T04:48:38.742Z,46.93
2019-04-04T04:50:41.039Z,48.90
2019-04-04T04:52:46.464Z,47.33
2019-04-04T04:54:46.789Z,50.30
2019-04-04T04:56:48.708Z,42.53
2019-04-04T04:58:50.387Z,43.53
2019-04-04T05:00:52.063Z,43.40
2019-04-04T05:02:53.873Z,52.13
2019-04-04T05:04:59.018Z,47.07
2019-04-04T05:06:59.158Z,52.03
2019-04-04T05:09:00.829Z,50.13
2019-04-04T05:11:02.528Z,49.10
2019-04-04T05:13:04.237Z,46.50
2019-04-04T05:15:05.925Z,41.10
2019-04-04T05:17:08.136Z,54.37
2019-04-04T05:19:11.185Z,71.33
2019-04-04T05:21:24.374Z,72.60
2019-04-04T05:23:16.753Z,107.60
2019-04-04T05:25:18.414Z,80.67
2019-04-04T05:27:20.199Z,81.10
2019-04-04T05:29:21.969Z,83.90
2019-04-04T05:31:23.648Z,88.33
2019-04-04T05:33:27.271Z,84.03
2019-04-04T05:35:28.892Z,79.73
2019-04-04T05:37:30.569Z,77.37
2019-04-04T05:39:32.553Z,75.93
2019-04-04T05:41:37.147Z,63.37
2019-04-04T05:43:38.153Z,53.03
2019-04-04T05:45:40.068Z,49.30
2019-04-04T05:47:41.747Z,51.37
2019-04-04T05:49:43.521Z,57.83
2019-04-04T05:51:46.345Z,46.40
2019-04-04T05:53:49.005Z,57.47
2019-04-04T05:55:50.672Z,55.63
2019-04-04T05:57:52.374Z,56.83
2019-04-04T05:59:55.988Z,58.70
2019-04-04T06:01:57.732Z,60.27
2019-04-04T06:03:59.521Z,52.33
2019-04-04T06:06:01.956Z,55.27
2019-04-04T06:08:03.741Z,45.70
2019-04-04T06:10:06.113Z,50.30
2019-04-04T06:12:07.802Z,49.63
2019-04-04T06:14:09.478Z,56.67
2019-04-04T06:16:11.145Z,55.43
2019-04-04T06:18:12.825Z,58.50
2019-04-04T06:20:16.742Z,64.83
2019-04-04T06:22:19.080Z,75.50
2019-04-04T06:24:22.402Z,77.63
2019-04-04T06:26:24.069Z,73.47
2019-04-04T06:28:25.748Z,72.23
2019-04-04T06:30:27.426Z,72.50
2019-04-04T06:32:30.961Z,73.47
2019-04-04T06:34:33.013Z,71.50
2019-04-04T06:36:34.921Z,70.43
2019-04-04T06:38:37.069Z,75.90
2019-04-04T06:40:38.830Z,79.03
2019-04-04T06:42:40.605Z,69.00
2019-04-04T06:44:43.970Z,69.90
2019-04-04T06:46:45.924Z,71.13
2019-04-04T06:48:47.602Z,85.60
2019-04-04T06:50:49.266Z,69.00
2019-04-04T06:52:51.277Z,69.10
2019-04-04T06:54:53.010Z,65.13
2019-04-04T06:56:55.079Z,74.40
2019-04-04T06:58:56.771Z,69.57
2019-04-04T07:00:58.441Z,83.57
2019-04-04T07:03:00.125Z,71.83
2019-04-04T07:05:01.795Z,76.20
2019-04-04T07:07:03.584Z,72.90
2019-04-04T07:09:06.045Z,80.50
2019-04-04T07:11:20.613Z,73.73
2019-04-04T07:13:21.457Z,77.57
2019-04-04T07:15:15.907Z,77.43
2019-04-04T07:17:18.029Z,69.57
2019-04-04T07:19:19.713Z,75.00
2019-04-04T07:21:21.752Z,81.10
2019-04-04T07:23:27.415Z,78.23
2019-04-04T07:25:27.006Z,75.33
2019-04-04T07:27:28.700Z,68.57
2019-04-04T07:29:30.385Z,63.73
2019-04-04T07:31:34.034Z,60.27
2019-04-04T07:33:35.621Z,62.90
2019-04-04T07:35:37.280Z,66.10
2019-04-04T07:37:38.954Z,55.33
2019-04-04T07:39:40.628Z,59.40
2019-04-04T07:41:45.010Z,65.03
2019-04-04T07:43:45.877Z,64.07
2019-04-04T07:45:47.542Z,57.90
2019-04-04T07:47:49.216Z,61.13
2019-04-04T07:49:50.886Z,56.87
2019-04-04T07:51:52.989Z,59.37
2019-04-04T07:53:54.654Z,60.50
2019-04-04T07:55:56.313Z,56.63
2019-04-04T07:57:58.002Z,55.00
2019-04-04T07:59:59.672Z,64.03
2019-04-04T08:02:01.342Z,61.23
2019-04-04T08:04:03.305Z,58.90
2019-04-04T08:06:04.962Z,64.27
2019-04-04T08:08:06.640Z,72.17
2019-04-04T08:10:20.059Z,65.57
2019-04-04T08:12:11.973Z,72.97
2019-04-04T08:14:13.641Z,70.80
2019-04-04T08:16:15.568Z,65.90
2019-04-04T08:18:17.525Z,68.70
2019-04-04T08:20:19.195Z,68.67
2019-04-04T08:22:20.990Z,66.70
2019-04-04T08:24:22.942Z,60.63
2019-04-04T08:26:24.597Z,65.40
2019-04-04T08:28:26.609Z,58.73
2019-04-04T08:30:28.277Z,61.03
2019-04-04T08:32:30.216Z,62.97
2019-04-04T08:34:31.902Z,59.63
2019-04-04T08:36:35.772Z,62.00
2019-04-04T08:38:37.453Z,58.40
2019-04-04T08:40:39.131Z,58.17
2019-04-04T08:42:40.889Z,61.70
2019-04-04T08:44:42.559Z,59.93
2019-04-04T08:46:44.225Z,57.20
2019-04-04T08:48:46.165Z,60.60
2019-04-04T08:50:47.828Z,58.33
2019-04-04T08:52:49.796Z,58.73
2019-04-04T08:54:51.464Z,59.97
2019-04-04T08:56:53.133Z,59.93
2019-04-04T08:58:55.169Z,60.13
2019-04-04T09:00:56.838Z,55.17
2019-04-04T09:02:58.492Z,60.23
2019-04-04T09:05:11.181Z,52.13
2019-04-04T09:07:04.073Z,54.60
2019-04-04T09:09:05.748Z,50.33
2019-04-04T09:11:07.439Z,52.67
2019-04-04T09:13:09.168Z,49.00
2019-04-04T09:15:10.845Z,56.57
2019-04-04T09:17:12.509Z,54.83
2019-04-04T09:19:14.177Z,72.03
2019-04-04T09:21:15.847Z,54.53
2019-04-04T09:23:17.505Z,58.63
2019-04-04T09:25:19.176Z,50.10
2019-04-04T09:27:20.846Z,52.53
2019-04-04T09:29:22.521Z,51.07
2019-04-04T09:31:24.448Z,57.63
2019-04-04T09:33:26.116Z,56.70
2019-04-04T09:35:27.794Z,59.73
2019-04-04T09:37:29.465Z,53.83
2019-04-04T09:39:31.453Z,50.03
2019-04-04T09:41:33.118Z,58.57
2019-04-04T09:43:34.777Z,53.40
2019-04-04T09:45:36.745Z,52.67
2019-04-04T09:47:38.708Z,51.10
2019-04-04T09:49:40.383Z,51.60
2019-04-04T09:51:42.044Z,54.47
2019-04-04T09:53:52.947Z,51.27
2019-04-04T09:55:47.284Z,54.63
2019-04-04T09:57:48.940Z,52.80
2019-04-04T09:59:50.625Z,61.97
2019-04-04T10:01:52.392Z,58.83
2019-04-04T10:03:54.051Z,52.80
2019-04-04T10:05:55.733Z,55.23
2019-04-04T10:07:57.528Z,56.33
2019-04-04T10:09:59.270Z,54.10
2019-04-04T10:12:00.941Z,58.80
2019-04-04T10:14:04.141Z,59.17
2019-04-04T10:16:06.085Z,51.53
2019-04-04T10:18:07.738Z,51.60
2019-04-04T10:20:09.739Z,51.37
2019-04-04T10:22:11.480Z,52.67
2019-04-04T10:24:13.425Z,52.43
2019-04-04T10:26:15.098Z,55.27
2019-04-04T10:28:16.756Z,53.90
2019-04-04T10:30:18.713Z,51.10
2019-04-04T10:32:20.772Z,50.60
2019-04-04T10:34:22.737Z,54.07
2019-04-04T10:36:24.693Z,48.60
2019-04-04T10:38:26.353Z,55.10
2019-04-04T10:40:28.033Z,54.27
2019-04-04T10:42:29.697Z,56.10
2019-04-04T10:44:31.369Z,60.97
2019-04-04T10:46:33.050Z,60.73
2019-04-04T10:48:34.712Z,55.07
2019-04-04T10:50:36.397Z,55.53
2019-04-04T10:52:38.066Z,52.97
2019-04-04T10:54:39.729Z,55.60
2019-04-04T10:56:41.411Z,55.77
2019-04-04T10:58:43.195Z,51.73
2019-04-04T11:00:44.869Z,53.00
2019-04-04T11:02:46.786Z,58.77
2019-04-04T11:04:48.453Z,50.13
2019-04-04T11:06:50.126Z,55.40
2019-04-04T11:08:52.053Z,60.30
2019-04-04T11:10:53.730Z,55.60
2019-04-04T11:12:55.395Z,56.43
2019-04-04T11:14:57.409Z,59.40
2019-04-04T11:16:59.063Z,57.87
2019-04-04T11:19:00.734Z,68.20
2019-04-04T11:21:02.409Z,53.20
2019-04-04T11:23:04.069Z,63.47
2019-04-04T11:25:06.058Z,56.57
2019-04-04T11:27:07.726Z,58.63
2019-04-04T11:29:09.628Z,57.83
2019-04-04T11:31:11.305Z,62.93
2019-04-04T11:33:12.989Z,65.80
2019-04-04T11:35:15.056Z,59.97
2019-04-04T11:37:17.017Z,63.93
2019-04-04T11:39:19.277Z,59.27
2019-04-04T11:41:20.953Z,58.57
2019-04-04T11:43:22.606Z,58.27
2019-04-04T11:45:24.545Z,62.10
2019-04-04T11:47:26.286Z,64.40
2019-04-04T11:49:28.244Z,59.87
2019-04-04T11:51:30.302Z,63.67
2019-04-04T11:53:32.272Z,67.57
2019-04-04T11:55:34.248Z,66.77
2019-04-04T11:57:36.433Z,61.73
2019-04-04T11:59:38.344Z,61.30
2019-04-04T12:01:41.546Z,63.07
2019-04-04T12:03:43.212Z,65.67
2019-04-04T12:05:44.897Z,70.03
2019-04-04T12:07:46.566Z,66.30
2019-04-04T12:09:48.237Z,66.63
2019-04-04T12:11:49.908Z,70.67
2019-04-04T12:13:51.568Z,64.97
2019-04-04T12:15:53.517Z,69.57
2019-04-04T12:17:55.184Z,62.60
2019-04-04T12:19:57.126Z,67.10
2019-04-04T12:21:58.856Z,63.50
2019-04-04T12:24:00.574Z,61.93
2019-04-04T12:26:02.244Z,60.50
2019-04-04T12:28:03.914Z,61.90
2019-04-04T12:30:05.581Z,63.87
2019-04-04T12:32:07.566Z,65.33
2019-04-04T12:34:09.355Z,67.73
2019-04-04T12:36:11.101Z,59.73
2019-04-04T12:38:12.765Z,60.80
2019-04-04T12:40:20.334Z,61.80
2019-04-04T12:42:18.005Z,62.17
2019-04-04T12:44:19.668Z,67.00
2019-04-04T12:46:21.334Z,63.10
2019-04-04T12:48:22.997Z,63.80
2019-04-04T12:50:24.664Z,58.87
2019-04-04T12:52:26.584Z,66.27
2019-04-04T12:54:28.244Z,62.73
2019-04-04T12:56:29.942Z,67.90
2019-04-04T12:58:31.701Z,57.57
2019-04-04T13:00:33.376Z,62.57
2019-04-04T13:02:35.045Z,61.80
2019-04-04T13:04:36.705Z,60.60
2019-04-04T13:06:38.373Z,67.27
2019-04-04T13:08:40.041Z,74.30
2019-04-04T13:10:41.701Z,73.30
2019-04-04T13:12:43.375Z,62.67
2019-04-04T13:14:45.033Z,70.57
2019-04-04T13:16:46.704Z,70.20
2019-04-04T13:18:48.369Z,63.17
2019-04-04T13:20:50.038Z,72.23
2019-04-04T13:22:51.709Z,66.13
2019-04-04T13:24:53.371Z,69.70
2019-04-04T13:26:55.041Z,66.17
2019-04-04T13:28:56.937Z,69.80
2019-04-04T13:30:58.606Z,66.73
2019-04-04T13:33:00.276Z,65.60
2019-04-04T13:35:04.927Z,66.20
2019-04-04T13:37:05.534Z,74.80
2019-04-04T13:39:09.376Z,72.83
2019-04-04T13:41:21.345Z,71.07
2019-04-04T13:43:14.615Z,68.27
2019-04-04T13:45:16.282Z,72.63
2019-04-04T13:47:18.280Z,73.63
2019-04-04T13:49:19.949Z,70.03
2019-04-04T13:51:21.654Z,70.27
2019-04-04T13:53:25.452Z,73.37
2019-04-04T13:55:27.409Z,70.33
2019-04-04T13:57:29.733Z,72.07
2019-04-04T13:59:31.401Z,78.70
2019-04-04T14:01:33.062Z,70.67
2019-04-04T14:03:34.733Z,70.47
2019-04-04T14:05:36.397Z,67.17
2019-04-04T14:07:38.157Z,75.97
2019-04-04T14:09:39.820Z,71.10
2019-04-04T14:11:42.180Z,78.37
2019-04-04T14:13:43.965Z,75.37
2019-04-04T14:15:45.629Z,72.30
2019-04-04T14:17:47.353Z,72.83
2019-04-04T14:19:49.439Z,77.37
2019-04-04T14:21:51.094Z,70.93
2019-04-04T14:23:53.134Z,72.37
2019-04-04T14:25:55.321Z,71.17
2019-04-04T14:27:58.217Z,74.73
2019-04-04T14:30:00.753Z,67.73
2019-04-04T14:32:02.449Z,66.20
2019-04-04T14:34:04.196Z,63.70
2019-04-04T14:36:05.865Z,62.60
2019-04-04T14:38:07.558Z,61.20
2019-04-04T14:40:09.217Z,69.13
2019-04-04T14:42:10.894Z,73.73
2019-04-04T14:44:15.421Z,66.17
2019-04-04T14:46:16.121Z,66.53
2019-04-04T14:48:18.081Z,63.77
2019-04-04T14:50:20.043Z,61.30
2019-04-04T14:52:24.098Z,59.63
2019-04-04T14:54:29.044Z,64.50
2019-04-04T14:56:29.167Z,66.03
2019-04-04T14:58:31.113Z,54.17
2019-04-04T15:00:33.090Z,66.83
2019-04-04T15:02:34.765Z,60.27
2019-04-04T15:04:36.428Z,57.50
2019-04-04T15:06:38.098Z,61.87
2019-04-04T15:08:39.777Z,62.40
2019-04-04T15:10:41.747Z,60.80
2019-04-04T15:12:43.426Z,66.97
2019-04-04T15:14:45.084Z,59.77
2019-04-04T15:16:46.750Z,59.27
2019-04-04T15:18:48.429Z,58.70
2019-04-04T15:20:50.158Z,64.60
2019-04-04T15:22:51.829Z,63.57
2019-04-04T15:24:53.493Z,60.47
2019-04-04T15:26:55.156Z,64.93
2019-04-04T15:28:56.842Z,65.43
2019-04-04T15:30:58.506Z,56.23
2019-04-04T15:33:02.623Z,55.80
2019-04-04T15:35:04.085Z,57.30
2019-04-04T15:37:05.753Z,54.77
2019-04-04T15:39:07.432Z,61.20
2019-04-04T15:41:09.093Z,56.93
2019-04-04T15:43:10.774Z,60.07
2019-04-04T15:45:12.437Z,55.57
2019-04-04T15:47:14.141Z,59.33
2019-04-04T15:49:15.835Z,57.87
2019-04-04T15:51:17.498Z,60.17
2019-04-04T15:53:19.170Z,60.20
2019-04-04T15:55:20.842Z,58.33
2019-04-04T15:57:22.506Z,57.90
2019-04-04T15:59:24.493Z,63.63
2019-04-04T16:01:26.157Z,56.53
2019-04-04T16:03:27.837Z,62.77
2019-04-04T16:05:29.492Z,64.33
2019-04-04T16:07:31.158Z,57.90
2019-04-04T16:09:32.825Z,61.53
2019-04-04T16:11:34.499Z,63.90
2019-04-04T16:13:36.481Z,54.30
2019-04-04T16:15:38.145Z,58.43
2019-04-04T16:17:39.816Z,60.07
2019-04-04T16:19:41.828Z,64.30
2019-04-04T16:21:43.492Z,64.40
2019-04-04T16:23:45.463Z,58.53
2019-04-04T16:25:47.501Z,58.90
2019-04-04T16:27:49.262Z,60.47
2019-04-04T16:29:50.935Z,56.13
2019-04-04T16:31:52.594Z,63.77
2019-04-04T16:33:54.621Z,62.37
2019-04-04T16:35:56.532Z,63.97
2019-04-04T16:37:58.199Z,59.60
2019-04-04T16:40:08.721Z,60.67
2019-04-04T16:42:03.453Z,77.13
2019-04-04T16:44:05.121Z,58.87
2019-04-04T16:46:06.789Z,60.70
2019-04-04T16:48:08.457Z,68.23
2019-04-04T16:50:10.399Z,66.70
2019-04-04T16:52:12.049Z,59.90
2019-04-04T16:54:13.713Z,57.63
2019-04-04T16:56:15.661Z,57.77
2019-04-04T16:58:17.330Z,61.30
2019-04-04T17:00:20.848Z,61.30
2019-04-04T17:02:22.608Z,66.50
2019-04-04T17:04:24.303Z,63.83
2019-04-04T17:06:25.957Z,66.80
2019-04-04T17:08:27.961Z,70.67
2019-04-04T17:10:29.621Z,84.83
2019-04-04T17:12:31.285Z,63.40
2019-04-04T17:14:33.287Z,66.87
2019-04-04T17:16:35.323Z,67.97
2019-04-04T17:18:36.989Z,71.73
2019-04-04T17:20:38.663Z,64.73
2019-04-04T17:22:40.325Z,71.27
2019-04-04T17:24:42.006Z,67.07
2019-04-04T17:26:43.785Z,65.07
2019-04-04T17:28:45.643Z,75.07
2019-04-04T17:30:47.397Z,68.77
2019-04-04T17:32:50.192Z,75.63
2019-04-04T17:34:52.467Z,80.10
2019-04-04T17:36:54.246Z,83.80
2019-04-04T17:38:56.097Z,86.90
2019-04-04T17:40:58.156Z,87.73
2019-04-04T17:43:00.120Z,91.50
2019-04-04T17:45:02.569Z,98.47
2019-04-04T17:47:05.366Z,85.40
2019-04-04T17:49:07.496Z,91.13
2019-04-04T17:51:09.170Z,94.00
2019-04-04T17:53:10.985Z,103.37
2019-04-04T17:55:12.812Z,95.33
2019-04-04T17:57:14.526Z,95.17
2019-04-04T17:59:16.589Z,93.33
2019-04-04T18:01:18.254Z,107.10
2019-04-04T18:03:19.904Z,102.43
2019-04-04T18:05:21.581Z,114.77
2019-04-04T18:07:23.244Z,86.17
2019-04-04T18:09:31.707Z,88.80
2019-04-04T18:11:28.468Z,94.90
2019-04-04T18:13:32.034Z,90.17
2019-04-04T18:15:33.692Z,100.60
2019-04-04T18:17:35.351Z,86.10
2019-04-04T18:19:37.069Z,90.83
2019-04-04T18:21:39.133Z,109.80
2019-04-04T18:23:40.807Z,95.67
2019-04-04T18:25:42.478Z,105.83
2019-04-04T18:27:44.481Z,111.37
2019-04-04T18:29:46.154Z,111.57
2019-04-04T18:31:47.820Z,124.23
2019-04-04T18:33:49.554Z,125.10
2019-04-04T18:35:51.267Z,124.10
2019-04-04T18:37:53.000Z,117.07
2019-04-04T18:39:55.054Z,116.47
2019-04-04T18:41:56.721Z,117.60
2019-04-04T18:43:58.376Z,113.57
2019-04-04T18:46:00.071Z,123.33
2019-04-04T18:48:01.823Z,118.17
2019-04-04T18:50:03.553Z,112.93
2019-04-04T18:52:05.214Z,133.90
2019-04-04T18:54:06.885Z,111.67
2019-04-04T18:56:08.557Z,124.13
2019-04-04T18:58:10.217Z,125.00
2019-04-04T19:00:12.903Z,128.17
2019-04-04T19:02:14.569Z,119.43
2019-04-04T19:04:16.225Z,117.83
2019-04-04T19:06:17.889Z,124.37
2019-04-04T19:08:19.565Z,126.57
2019-04-04T19:10:21.237Z,130.03
2019-04-04T19:12:22.905Z,141.93
2019-04-04T19:14:24.564Z,126.77
2019-04-04T19:16:26.245Z,128.50
2019-04-04T19:18:28.177Z,134.33
2019-04-04T19:20:29.845Z,125.73
2019-04-04T19:22:31.758Z,113.60
2019-04-04T19:24:33.412Z,120.97
2019-04-04T19:26:35.132Z,127.00
2019-04-04T19:28:37.156Z,118.20
2019-04-04T19:30:38.808Z,129.63
2019-04-04T19:32:40.472Z,116.23
2019-04-04T19:34:43.733Z,104.87
2019-04-04T19:36:45.617Z,110.67
2019-04-04T19:38:47.561Z,107.33
2019-04-04T19:40:49.337Z,112.33
2019-04-04T19:42:51.006Z,112.40
2019-04-04T19:44:53.814Z,118.77
2019-04-04T19:46:55.635Z,111.80
2019-04-04T19:48:57.292Z,113.90
2019-04-04T19:50:59.321Z,105.23
2019-04-04T19:53:00.977Z,109.47
2019-04-04T19:55:02.639Z,104.17
2019-04-04T19:57:04.576Z,105.57
2019-04-04T19:59:06.253Z,107.27
2019-04-04T20:01:08.825Z,92.43
2019-04-04T20:03:10.487Z,101.43
2019-04-04T20:05:12.149Z,94.27
2019-04-04T20:07:13.817Z,110.87
2019-04-04T20:09:15.813Z,101.00
2019-04-04T20:11:17.487Z,101.87
2019-04-04T20:13:30.361Z,121.87
2019-04-04T20:15:23.229Z,106.50
2019-04-04T20:17:25.502Z,106.03
2019-04-04T20:19:30.050Z,102.47
2019-04-04T20:21:31.915Z,105.73
2019-04-04T20:23:33.817Z,108.50
2019-04-04T20:25:36.050Z,99.80
2019-04-04T20:27:37.717Z,112.90
2019-04-04T20:29:39.377Z,107.03
2019-04-04T20:31:41.051Z,118.83
2019-04-04T20:33:42.981Z,109.17
2019-04-04T20:35:45.078Z,100.70
2019-04-04T20:37:46.759Z,117.40
2019-04-04T20:39:48.684Z,109.87
2019-04-04T20:41:50.527Z,118.33
2019-04-04T20:43:52.496Z,116.83
2019-04-04T20:45:54.665Z,119.23
2019-04-04T20:47:56.853Z,120.73
2019-04-04T20:49:58.516Z,121.13
2019-04-04T20:52:00.509Z,126.00
2019-04-04T20:54:02.177Z,130.53
2019-04-04T20:56:04.492Z,116.30
2019-04-04T20:58:06.157Z,140.97
2019-04-04T21:00:07.839Z,130.30
2019-04-04T21:02:09.514Z,126.70
2019-04-04T21:04:11.168Z,148.97
2019-04-04T21:06:12.824Z,138.50
2019-04-04T21:08:14.503Z,130.33
2019-04-04T21:10:16.161Z,144.30
2019-04-04T21:12:17.848Z,136.43
2019-04-04T21:14:19.504Z,151.17
2019-04-04T21:16:21.197Z,145.73
2019-04-04T21:18:22.862Z,153.10
2019-04-04T21:20:24.797Z,152.90
2019-04-04T21:22:27.671Z,165.90
2019-04-04T21:24:29.729Z,157.57
2019-04-04T21:26:31.413Z,166.63
2019-04-04T21:28:33.077Z,161.90
2019-04-04T21:30:35.066Z,167.17
2019-04-04T21:32:36.744Z,147.53
2019-04-04T21:34:38.654Z,170.63
2019-04-04T21:36:40.325Z,158.83
2019-04-04T21:38:41.985Z,155.50
2019-04-04T21:40:43.637Z,160.13
2019-04-04T21:42:45.309Z,160.03
2019-04-04T21:44:47.269Z,166.87
2019-04-04T21:46:49.233Z,146.80
2019-04-04T21:48:50.897Z,159.43
2019-04-04T21:50:52.565Z,158.87
2019-04-04T21:52:54.224Z,156.23
2019-04-04T21:54:55.893Z,160.53
2019-04-04T21:56:57.564Z,146.20
2019-04-04T21:58:59.242Z,148.63
2019-04-04T22:01:00.920Z,155.23
2019-04-04T22:03:02.586Z,152.20
2019-04-04T22:05:05.531Z,150.23
2019-04-04T22:07:07.200Z,140.97
2019-04-04T22:09:10.934Z,169.00
2019-04-04T22:11:12.589Z,158.73
2019-04-04T22:13:14.700Z,153.30
2019-04-04T22:15:16.356Z,151.47
2019-04-04T22:17:18.033Z,167.20
2019-04-04T22:19:19.965Z,160.73
2019-04-04T22:21:21.629Z,150.70
2019-04-04T22:23:23.302Z,169.23
2019-04-04T22:25:24.969Z,151.07
2019-04-04T22:27:26.884Z,132.37
2019-04-04T22:29:28.837Z,153.80
2019-04-04T22:31:30.508Z,160.40
2019-04-04T22:33:32.173Z,157.00
2019-04-04T22:35:33.842Z,146.23
2019-04-04T22:37:35.509Z,147.37
2019-04-04T22:39:37.182Z,145.13
2019-04-04T22:41:38.845Z,148.37
2019-04-04T22:43:40.523Z,149.53
2019-04-04T22:45:42.445Z,165.87
2019-04-04T22:47:44.124Z,155.53
2019-04-04T22:49:46.042Z,139.30
2019-04-04T22:51:47.954Z,140.80
2019-04-04T22:53:49.637Z,154.73
2019-04-04T22:55:51.294Z,144.57
2019-04-04T22:57:52.956Z,152.37
2019-04-04T22:59:54.629Z,162.73
2019-04-04T23:01:56.298Z,159.60
2019-04-04T23:03:57.968Z,132.23
2019-04-04T23:05:59.630Z,142.80
2019-04-04T23:08:01.334Z,130.47
2019-04-04T23:10:04.025Z,139.87
2019-04-04T23:12:05.976Z,149.33
2019-04-04T23:14:07.643Z,147.07
2019-04-04T23:16:09.620Z,164.20
2019-04-04T23:18:11.297Z,131.93
2019-04-04T23:20:14.157Z,145.53
2019-04-04T23:22:15.816Z,132.07
2019-04-04T23:24:17.472Z,131.87
2019-04-04T23:26:19.384Z,154.77
2019-04-04T23:28:21.045Z,146.70
2019-04-04T23:30:22.713Z,132.90
2019-04-04T23:32:24.377Z,134.73
2019-04-04T23:34:26.056Z,133.13
2019-04-04T23:36:34.966Z,141.50
2019-04-04T23:38:31.276Z,133.40
2019-04-04T23:40:33.049Z,140.80
2019-04-04T23:42:34.725Z,144.00
2019-04-04T23:44:36.397Z,148.67
2019-04-04T23:46:38.044Z,141.47
2019-04-04T23:48:39.725Z,156.63
2019-04-04T23:50:41.481Z,148.17
2019-04-04T23:52:43.381Z,158.00
2019-04-04T23:54:45.049Z,150.53
2019-04-04T23:56:46.715Z,164.23
2019-04-04T23:58:48.392Z,160.03
